Time;durP1;ratioP1;P1;durP2;ratioP2;P2;SDS_P1;SDS_P2;PMS_P1;PMS_P2;Temp;Humidity;BMP_temperature;BMP_pressure;BME280_temperature;BME280_humidity;BME280_pressure;Samples;Min_cycle;Max_cycle;Signal;HPM_P1;HPM_P2
2024/02/23 00:00:14;;;;;;;;;2.00;1.00;;;;;;;;5088575;28;11199;-83
2024/02/23 00:02:41;;;;;;;;;0.00;0.00;;;;;;;;5090943;28;11282;-79
2024/02/23 00:05:09;;;;;;;;;0.50;0.00;;;;;;;;5090860;28;11422;-79
2024/02/23 00:07:36;;;;;;;;;0.00;0.00;;;;;;;;5092296;28;11308;-84
2024/02/23 00:10:05;;;;;;;;;0.00;0.00;;;;;;;;5093420;28;11190;-83
2024/02/23 00:12:32;;;;;;;;;0.00;0.00;;;;;;;;5094344;28;11143;-78
2024/02/23 00:15:07;;;;;;;;;0.00;0.00;;;;;;;;5092021;28;11306;-88
2024/02/23 00:17:34;;;;;;;;;0.00;0.00;;;;;;;;5092334;28;11111;-81
2024/02/23 00:20:01;;;;;;;;;0.00;0.00;;;;;;;;5090155;28;11028;-92
2024/02/23 00:22:29;;;;;;;;;0.00;0.00;;;;;;;;5089168;28;11184;-88
2024/02/23 00:24:56;;;;;;;;;1.00;1.00;;;;;;;;5089323;28;11188;-90
2024/02/23 00:27:23;;;;;;;;;0.00;0.00;;;;;;;;5088674;28;11231;-85
2024/02/23 00:29:50;;;;;;;;;0.00;0.00;;;;;;;;5089208;28;12048;-87
2024/02/23 00:32:19;;;;;;;;;0.00;0.00;;;;;;;;5088656;28;11358;-87
2024/02/23 00:34:46;;;;;;;;;0.00;0.00;;;;;;;;5092749;28;11188;-90
2024/02/23 00:37:13;;;;;;;;;0.00;0.00;;;;;;;;5109395;28;11419;-78
2024/02/23 00:39:40;;;;;;;;;0.00;0.00;;;;;;;;5101089;28;11420;-77
2024/02/23 00:42:08;;;;;;;;;0.75;0.75;;;;;;;;5086243;28;11192;-84
2024/02/23 00:44:36;;;;;;;;;1.00;1.00;;;;;;;;5090529;28;11516;-83
2024/02/23 00:47:04;;;;;;;;;1.00;1.00;;;;;;;;5088948;28;11345;-84
2024/02/23 00:49:32;;;;;;;;;0.00;0.00;;;;;;;;5091470;28;11291;-92
2024/02/23 00:52:00;;;;;;;;;0.00;0.00;;;;;;;;5084501;28;11408;-88
2024/02/23 00:54:27;;;;;;;;;0.00;0.00;;;;;;;;5091621;28;11398;-87
2024/02/23 00:56:54;;;;;;;;;1.00;0.00;;;;;;;;5089577;28;11438;-87
2024/02/23 00:59:22;;;;;;;;;0.50;0.00;;;;;;;;5088813;28;11084;-87
2024/02/23 01:01:49;;;;;;;;;0.00;0.00;;;;;;;;5088832;28;10967;-82
2024/02/23 01:04:18;;;;;;;;;0.00;0.00;;;;;;;;5089907;28;11454;-92
2024/02/23 01:06:47;;;;;;;;;1.00;0.00;;;;;;;;5089974;28;11339;-89
2024/02/23 01:09:16;;;;;;;;;0.00;0.00;;;;;;;;5089011;28;11368;-89
2024/02/23 01:11:44;;;;;;;;;0.00;0.00;;;;;;;;5097835;28;11409;-86
2024/02/23 01:14:12;;;;;;;;;0.00;0.00;;;;;;;;5093052;28;12259;-79
2024/02/23 01:16:42;;;;;;;;;0.00;0.00;;;;;;;;5093783;28;11404;-89
2024/02/23 01:19:10;;;;;;;;;0.00;0.00;;;;;;;;5094168;28;11114;-90
2024/02/23 01:21:38;;;;;;;;;1.25;0.25;;;;;;;;5093310;28;11248;-89
2024/02/23 01:24:12;;;;;;;;;1.50;0.00;;;;;;;;5090037;28;11406;-88
2024/02/23 01:26:41;;;;;;;;;2.25;0.75;;;;;;;;5092227;28;11172;-91
2024/02/23 01:29:08;;;;;;;;;0.00;0.00;;;;;;;;5092214;28;11416;-86
2024/02/23 01:31:36;;;;;;;;;0.00;0.00;;;;;;;;5091848;28;11463;-91
2024/02/23 01:34:06;;;;;;;;;0.50;0.00;;;;;;;;5091933;28;11393;-86
2024/02/23 01:36:36;;;;;;;;;0.00;0.00;;;;;;;;5092562;28;11887;-88
2024/02/23 01:39:08;;;;;;;;;0.00;0.00;;;;;;;;5091733;28;11557;-80
2024/02/23 01:41:35;;;;;;;;;1.50;0.00;;;;;;;;5090396;28;11422;-82
2024/02/23 01:44:05;;;;;;;;;0.00;0.00;;;;;;;;5091687;28;11481;-87
2024/02/23 01:46:36;;;;;;;;;0.00;0.00;;;;;;;;5092272;28;12410;-81
2024/02/23 01:49:05;;;;;;;;;0.00;0.00;;;;;;;;5091729;28;11409;-82
2024/02/23 01:51:34;;;;;;;;;0.25;0.25;;;;;;;;5081763;28;11484;-81
2024/02/23 01:54:01;;;;;;;;;2.25;0.00;;;;;;;;5093108;28;11277;-78
2024/02/23 01:56:30;;;;;;;;;2.50;0.00;;;;;;;;5094711;28;11574;-82
2024/02/23 01:58:58;;;;;;;;;0.00;0.00;;;;;;;;5094329;28;11400;-80
2024/02/23 02:01:25;;;;;;;;;0.00;0.00;;;;;;;;5094185;28;11362;-79
2024/02/23 02:03:53;;;;;;;;;1.00;1.00;;;;;;;;5095144;28;11191;-79
2024/02/23 02:06:20;;;;;;;;;0.00;0.00;;;;;;;;5094953;28;11413;-85
2024/02/23 02:08:49;;;;;;;;;0.00;0.00;;;;;;;;5094658;28;11534;-86
2024/02/23 02:11:16;;;;;;;;;0.75;0.00;;;;;;;;5091155;28;11503;-83
2024/02/23 02:13:46;;;;;;;;;1.00;1.00;;;;;;;;5091553;28;11414;-85
2024/02/23 02:16:13;;;;;;;;;0.75;0.75;;;;;;;;5090873;28;11417;-87
2024/02/23 02:18:40;;;;;;;;;0.00;0.00;;;;;;;;5090609;28;11442;-85
2024/02/23 02:21:10;;;;;;;;;0.00;0.00;;;;;;;;5091602;28;12265;-92
2024/02/23 02:23:38;;;;;;;;;2.25;0.50;;;;;;;;5090643;28;11422;-89
2024/02/23 02:26:08;;;;;;;;;1.00;1.00;;;;;;;;5091226;28;11429;-83
2024/02/23 02:28:38;;;;;;;;;0.00;0.00;;;;;;;;5090991;28;11409;-91
2024/02/23 02:31:08;;;;;;;;;2.00;0.00;;;;;;;;5090208;28;11335;-85
2024/02/23 02:33:38;;;;;;;;;0.00;0.00;;;;;;;;5089542;28;12153;-86
2024/02/23 02:36:08;;;;;;;;;1.50;1.00;;;;;;;;5091859;28;12258;-85
2024/02/23 02:38:35;;;;;;;;;0.25;0.25;;;;;;;;5091621;28;12293;-81
2024/02/23 02:41:05;;;;;;;;;0.00;0.00;;;;;;;;5093981;28;11414;-82
2024/02/23 02:43:33;;;;;;;;;0.00;0.00;;;;;;;;5094575;28;11467;-89
2024/02/23 02:46:00;;;;;;;;;0.00;0.00;;;;;;;;5090213;28;11423;-81
2024/02/23 02:48:29;;;;;;;;;0.25;0.25;;;;;;;;5090851;28;11209;-80
2024/02/23 02:50:56;;;;;;;;;2.00;0.00;;;;;;;;5090068;28;11278;-82
2024/02/23 02:53:23;;;;;;;;;0.00;0.00;;;;;;;;5090471;28;11460;-80
2024/02/23 02:55:50;;;;;;;;;1.00;1.00;;;;;;;;5089635;28;11396;-83
2024/02/23 02:58:17;;;;;;;;;3.50;0.50;;;;;;;;5090486;28;11346;-85
2024/02/23 03:00:45;;;;;;;;;2.00;1.00;;;;;;;;5090450;28;11342;-88
2024/02/23 03:03:12;;;;;;;;;2.00;0.00;;;;;;;;5089929;28;11491;-81
2024/02/23 03:05:41;;;;;;;;;0.00;0.00;;;;;;;;5089572;28;11415;-86
2024/02/23 03:08:08;;;;;;;;;0.00;0.00;;;;;;;;5090371;28;11397;-89
2024/02/23 03:10:41;;;;;;;;;0.00;0.00;;;;;;;;5090028;28;11283;-79
2024/02/23 03:13:08;;;;;;;;;1.00;0.00;;;;;;;;5090934;28;11423;-84
2024/02/23 03:15:36;;;;;;;;;1.00;1.00;;;;;;;;5091343;28;11543;-83
2024/02/23 03:18:05;;;;;;;;;0.50;0.50;;;;;;;;5102842;28;11401;-87
2024/02/23 03:20:32;;;;;;;;;0.00;0.00;;;;;;;;5097265;28;11196;-77
2024/02/23 03:23:03;;;;;;;;;2.00;0.00;;;;;;;;5097345;28;11198;-79
2024/02/23 03:25:30;;;;;;;;;0.00;0.00;;;;;;;;5092993;28;11475;-86
2024/02/23 03:27:58;;;;;;;;;0.00;0.00;;;;;;;;5090277;28;11419;-77
2024/02/23 03:30:25;;;;;;;;;0.50;0.50;;;;;;;;5089461;28;11298;-79
2024/02/23 03:32:52;;;;;;;;;0.25;0.00;;;;;;;;5090053;28;11232;-85
2024/02/23 03:35:19;;;;;;;;;2.00;1.00;;;;;;;;5089834;28;11470;-84
2024/02/23 03:37:47;;;;;;;;;0.50;0.00;;;;;;;;5090773;28;11528;-80
2024/02/23 03:40:18;;;;;;;;;0.00;0.00;;;;;;;;5102513;28;11483;-87
2024/02/23 03:42:45;;;;;;;;;2.00;0.00;;;;;;;;5090992;28;11334;-81
2024/02/23 03:45:12;;;;;;;;;0.50;0.00;;;;;;;;5092183;28;11226;-87
2024/02/23 03:47:40;;;;;;;;;5.00;1.00;;;;;;;;5092580;28;12234;-80
2024/02/23 03:50:09;;;;;;;;;2.00;1.00;;;;;;;;5101692;28;11511;-80
2024/02/23 03:52:39;;;;;;;;;0.25;0.25;;;;;;;;5096200;28;11215;-80
2024/02/23 03:55:09;;;;;;;;;0.00;0.00;;;;;;;;5093303;28;11245;-79
2024/02/23 03:57:38;;;;;;;;;2.00;0.00;;;;;;;;5091748;28;11204;-79
2024/02/23 04:00:08;;;;;;;;;0.50;0.00;;;;;;;;5082195;28;11310;-93
2024/02/23 04:02:39;;;;;;;;;0.50;0.00;;;;;;;;5090180;28;11360;-90
2024/02/23 04:05:07;;;;;;;;;1.50;1.50;;;;;;;;5090397;28;11395;-83
2024/02/23 04:07:37;;;;;;;;;1.00;0.00;;;;;;;;5090085;28;11542;-91
2024/02/23 04:10:06;;;;;;;;;0.00;0.00;;;;;;;;5090580;28;11471;-91
2024/02/23 04:12:33;;;;;;;;;1.00;1.00;;;;;;;;5089738;28;11367;-91
2024/02/23 04:15:02;;;;;;;;;1.50;0.00;;;;;;;;5090881;28;11403;-93
2024/02/23 04:17:29;;;;;;;;;1.00;1.00;;;;;;;;5089855;28;11211;-91
2024/02/23 04:19:56;;;;;;;;;2.00;1.00;;;;;;;;5088923;28;11197;-81
2024/02/23 04:22:23;;;;;;;;;1.00;0.25;;;;;;;;5077370;28;12179;-93
2024/02/23 04:24:50;;;;;;;;;0.00;0.00;;;;;;;;5090575;28;11404;-91
2024/02/23 04:27:18;;;;;;;;;1.00;1.00;;;;;;;;5091008;28;11495;-88
2024/02/23 04:29:45;;;;;;;;;0.25;0.25;;;;;;;;5091969;28;11409;-88
2024/02/23 04:32:14;;;;;;;;;0.00;0.00;;;;;;;;5091481;28;11435;-90
2024/02/23 04:34:42;;;;;;;;;0.00;0.00;;;;;;;;5090645;28;11384;-95
2024/02/23 04:37:09;;;;;;;;;1.50;1.50;;;;;;;;5098956;28;11391;-89
2024/02/23 04:39:38;;;;;;;;;0.00;0.00;;;;;;;;5092344;28;11509;-89
2024/02/23 04:42:08;;;;;;;;;0.00;0.00;;;;;;;;5093257;28;12188;-92
2024/02/23 04:44:36;;;;;;;;;1.75;0.75;;;;;;;;5095204;28;11512;-88
2024/02/23 04:47:03;;;;;;;;;1.00;0.00;;;;;;;;5088909;28;11512;-91
2024/02/23 04:49:32;;;;;;;;;0.75;0.75;;;;;;;;5092451;28;11396;-86
2024/02/23 04:52:02;;;;;;;;;0.00;0.00;;;;;;;;5092581;28;11455;-84
2024/02/23 04:54:29;;;;;;;;;0.00;0.00;;;;;;;;5110154;28;12171;-81
2024/02/23 04:56:57;;;;;;;;;0.50;0.50;;;;;;;;5094248;28;11419;-83
2024/02/23 04:59:24;;;;;;;;;0.00;0.00;;;;;;;;5091612;28;11614;-87
2024/02/23 05:01:51;;;;;;;;;0.00;0.00;;;;;;;;5091533;28;11309;-83
2024/02/23 05:04:18;;;;;;;;;0.00;0.00;;;;;;;;5091911;28;11387;-86
2024/02/23 05:06:47;;;;;;;;;0.00;0.00;;;;;;;;5092376;28;11443;-88
2024/02/23 05:09:14;;;;;;;;;0.00;0.00;;;;;;;;5092471;28;11434;-86
2024/02/23 05:11:42;;;;;;;;;0.00;0.00;;;;;;;;5092072;28;11398;-83
2024/02/23 05:14:09;;;;;;;;;1.00;0.00;;;;;;;;5091892;28;11405;-80
2024/02/23 05:16:37;;;;;;;;;0.00;0.00;;;;;;;;5091228;28;11432;-80
2024/02/23 05:19:04;;;;;;;;;0.00;0.00;;;;;;;;5091757;28;11528;-84
2024/02/23 05:21:32;;;;;;;;;0.00;0.00;;;;;;;;5091659;28;11528;-85
2024/02/23 05:24:00;;;;;;;;;0.25;0.25;;;;;;;;5091232;28;11303;-79
2024/02/23 05:26:30;;;;;;;;;0.00;0.00;;;;;;;;5090008;28;11373;-80
2024/02/23 05:28:57;;;;;;;;;0.50;0.50;;;;;;;;5092101;28;11401;-81
2024/02/23 05:31:48;;;;;;;;;2.00;0.00;;;;;;;;5092124;28;11411;-83
2024/02/23 05:34:15;;;;;;;;;0.00;0.00;;;;;;;;5094596;28;11406;-81
2024/02/23 05:36:43;;;;;;;;;0.00;0.00;;;;;;;;5093906;28;11424;-84
2024/02/23 05:39:12;;;;;;;;;0.00;0.00;;;;;;;;5094642;28;11415;-81
2024/02/23 05:41:40;;;;;;;;;0.00;0.00;;;;;;;;5094117;28;11398;-80
2024/02/23 05:44:07;;;;;;;;;0.25;0.25;;;;;;;;5095069;28;11544;-79
2024/02/23 05:46:35;;;;;;;;;1.50;0.00;;;;;;;;5094399;28;11451;-80
2024/02/23 05:49:02;;;;;;;;;2.75;0.00;;;;;;;;5091295;28;11527;-84
2024/02/23 05:51:30;;;;;;;;;0.75;0.75;;;;;;;;5090532;28;11409;-82
2024/02/23 05:53:57;;;;;;;;;0.50;0.00;;;;;;;;5090200;28;11551;-88
2024/02/23 05:56:26;;;;;;;;;1.75;1.00;;;;;;;;5091343;28;11422;-83
2024/02/23 05:58:54;;;;;;;;;0.00;0.00;;;;;;;;5091177;28;11538;-87
2024/02/23 06:01:21;;;;;;;;;0.00;0.00;;;;;;;;5092690;28;11412;-86
2024/02/23 06:03:50;;;;;;;;;0.00;0.00;;;;;;;;5103250;28;11419;-80
2024/02/23 06:06:19;;;;;;;;;0.00;0.00;;;;;;;;5102502;28;11635;-88
2024/02/23 06:08:49;;;;;;;;;0.25;0.00;;;;;;;;5091282;28;11484;-81
2024/02/23 06:11:16;;;;;;;;;1.00;1.00;;;;;;;;5091141;28;11547;-75
2024/02/23 06:13:45;;;;;;;;;0.00;0.00;;;;;;;;5089926;28;12172;-76
2024/02/23 06:16:13;;;;;;;;;0.00;0.00;;;;;;;;5088776;28;11433;-76
2024/02/23 06:18:41;;;;;;;;;0.00;0.00;;;;;;;;5102042;28;11131;-75
2024/02/23 06:21:18;;;;;;;;;0.00;0.00;;;;;;;;5092352;28;11144;-77
2024/02/23 06:23:47;;;;;;;;;1.00;1.00;;;;;;;;5090479;28;11179;-77
2024/02/23 06:26:14;;;;;;;;;0.50;0.25;;;;;;;;5090317;28;11911;-73
2024/02/23 06:28:42;;;;;;;;;0.00;0.00;;;;;;;;5089743;28;11096;-77
2024/02/23 06:31:11;;;;;;;;;2.00;0.75;;;;;;;;5089405;28;11075;-74
2024/02/23 06:33:41;;;;;;;;;0.25;0.25;;;;;;;;5091007;28;11157;-76
2024/02/23 06:36:09;;;;;;;;;1.00;0.00;;;;;;;;5090237;28;11035;-73
2024/02/23 06:38:37;;;;;;;;;0.00;0.00;;;;;;;;5090274;28;11025;-75
2024/02/23 06:41:10;;;;;;;;;0.00;0.00;;;;;;;;5088496;28;11529;-75
2024/02/23 06:43:38;;;;;;;;;6.00;1.00;;;;;;;;5089777;28;11129;-78
2024/02/23 06:46:22;;;;;;;;;0.00;0.00;;;;;;;;5089579;28;11966;-74
2024/02/23 06:48:52;;;;;;;;;0.50;0.25;;;;;;;;5089671;28;11264;-73
2024/02/23 06:51:20;;;;;;;;;0.00;0.00;;;;;;;;5089312;28;11027;-77
2024/02/23 06:53:47;;;;;;;;;1.00;0.00;;;;;;;;5089361;28;11139;-77
2024/02/23 06:56:21;;;;;;;;;0.00;0.00;;;;;;;;5089606;28;11032;-77
2024/02/23 06:58:51;;;;;;;;;0.00;0.00;;;;;;;;5088847;28;11045;-78
2024/02/23 07:01:18;;;;;;;;;1.50;0.00;;;;;;;;5089007;28;11031;-77
2024/02/23 07:03:50;;;;;;;;;0.00;0.00;;;;;;;;5088573;28;11148;-75
2024/02/23 07:06:18;;;;;;;;;1.75;0.75;;;;;;;;5089537;28;11034;-78
2024/02/23 07:08:45;;;;;;;;;2.25;0.50;;;;;;;;5088692;28;11208;-81
2024/02/23 07:11:14;;;;;;;;;0.50;0.00;;;;;;;;5089393;28;11284;-80
2024/02/23 07:13:46;;;;;;;;;0.00;0.00;;;;;;;;5089193;28;11169;-76
2024/02/23 07:16:13;;;;;;;;;0.00;0.00;;;;;;;;5089998;28;11094;-80
2024/02/23 07:18:42;;;;;;;;;2.00;0.00;;;;;;;;5089946;28;11126;-76
2024/02/23 07:21:10;;;;;;;;;1.50;1.00;;;;;;;;5092257;28;11121;-76
2024/02/23 07:23:38;;;;;;;;;0.00;0.00;;;;;;;;5091439;28;11051;-76
2024/02/23 07:26:08;;;;;;;;;0.00;0.00;;;;;;;;5092775;28;11270;-79
2024/02/23 07:28:35;;;;;;;;;0.00;0.00;;;;;;;;5092064;28;11088;-77
2024/02/23 07:31:07;;;;;;;;;0.00;0.00;;;;;;;;5091510;28;11199;-76
2024/02/23 07:33:34;;;;;;;;;0.50;0.00;;;;;;;;5091316;28;11205;-76
2024/02/23 07:36:04;;;;;;;;;0.00;0.00;;;;;;;;5090452;28;11128;-73
2024/02/23 07:38:35;;;;;;;;;0.00;0.00;;;;;;;;5087350;28;11017;-77
2024/02/23 07:41:04;;;;;;;;;0.00;0.00;;;;;;;;5088218;28;11107;-74
2024/02/23 07:43:31;;;;;;;;;0.00;0.00;;;;;;;;5088068;28;11030;-78
2024/02/23 07:45:58;;;;;;;;;0.00;0.00;;;;;;;;5087331;28;11023;-74
2024/02/23 07:48:26;;;;;;;;;0.00;0.00;;;;;;;;5088041;28;11264;-75
2024/02/23 07:50:53;;;;;;;;;0.00;0.00;;;;;;;;5087338;28;11083;-76
2024/02/23 07:53:20;;;;;;;;;0.00;0.00;;;;;;;;5077385;28;11923;-74
2024/02/23 07:55:49;;;;;;;;;0.00;0.00;;;;;;;;5087423;28;10955;-74
2024/02/23 07:58:16;;;;;;;;;0.00;0.00;;;;;;;;5088089;28;11070;-75
2024/02/23 08:00:43;;;;;;;;;0.00;0.00;;;;;;;;5087117;28;11042;-77
2024/02/23 08:03:10;;;;;;;;;1.75;0.00;;;;;;;;5086964;28;11191;-74
2024/02/23 08:05:38;;;;;;;;;2.00;0.50;;;;;;;;5087879;28;11118;-79
2024/02/23 08:08:08;;;;;;;;;0.00;0.00;;;;;;;;5089395;28;11988;-77
2024/02/23 08:10:40;;;;;;;;;0.00;0.00;;;;;;;;5088438;28;11080;-78
2024/02/23 08:13:10;;;;;;;;;2.50;1.00;;;;;;;;5088180;28;11124;-77
2024/02/23 08:15:37;;;;;;;;;1.50;0.00;;;;;;;;5085386;28;11070;-73
2024/02/23 08:18:05;;;;;;;;;0.00;0.00;;;;;;;;5087902;28;11118;-77
2024/02/23 08:20:32;;;;;;;;;0.25;0.25;;;;;;;;5087314;28;10968;-73
2024/02/23 08:22:59;;;;;;;;;0.00;0.00;;;;;;;;5087959;28;11069;-76
2024/02/23 08:25:28;;;;;;;;;2.00;0.00;;;;;;;;5087117;28;10925;-75
2024/02/23 08:27:56;;;;;;;;;1.00;0.75;;;;;;;;5087651;28;10841;-75
2024/02/23 08:30:24;;;;;;;;;0.00;0.00;;;;;;;;5087150;28;10908;-75
2024/02/23 08:32:51;;;;;;;;;1.00;0.00;;;;;;;;5086899;28;11092;-74
2024/02/23 08:35:19;;;;;;;;;0.00;0.00;;;;;;;;5075834;28;10809;-77
2024/02/23 08:37:46;;;;;;;;;1.75;0.00;;;;;;;;5086710;28;10991;-75
2024/02/23 08:40:13;;;;;;;;;2.00;1.00;;;;;;;;5087834;28;10861;-75
2024/02/23 08:42:42;;;;;;;;;0.00;0.00;;;;;;;;5087800;28;10982;-75
2024/02/23 08:45:12;;;;;;;;;0.75;0.75;;;;;;;;5091981;28;10893;-77
2024/02/23 08:47:42;;;;;;;;;0.00;0.00;;;;;;;;5087017;28;11070;-77
2024/02/23 08:50:10;;;;;;;;;0.00;0.00;;;;;;;;5087755;28;10997;-80
2024/02/23 08:52:37;;;;;;;;;1.00;1.00;;;;;;;;5087524;28;11009;-78
2024/02/23 08:55:07;;;;;;;;;0.00;0.00;;;;;;;;5087745;28;10908;-79
2024/02/23 08:57:35;;;;;;;;;0.00;0.00;;;;;;;;5087288;28;10863;-80
2024/02/23 09:00:04;;;;;;;;;0.00;0.00;;;;;;;;5088196;28;10986;-80
2024/02/23 09:02:32;;;;;;;;;0.00;0.00;;;;;;;;5087201;28;10970;-77
2024/02/23 09:05:00;;;;;;;;;0.00;0.00;;;;;;;;5088240;28;10814;-76
2024/02/23 09:07:29;;;;;;;;;0.00;0.00;;;;;;;;5088457;28;10814;-80
2024/02/23 09:09:57;;;;;;;;;2.00;0.50;;;;;;;;5089652;28;10666;-78
2024/02/23 09:12:24;;;;;;;;;0.00;0.00;;;;;;;;5090018;28;10583;-79
2024/02/23 09:14:51;;;;;;;;;0.25;0.25;;;;;;;;5090535;28;10628;-80
2024/02/23 09:17:20;;;;;;;;;1.50;0.50;;;;;;;;5090319;28;10530;-78
2024/02/23 09:19:48;;;;;;;;;1.75;0.75;;;;;;;;5090507;28;10518;-79
2024/02/23 09:22:16;;;;;;;;;0.00;0.00;;;;;;;;5089221;28;10530;-79
2024/02/23 09:24:44;;;;;;;;;0.00;0.00;;;;;;;;5090195;28;10650;-74
2024/02/23 09:27:11;;;;;;;;;1.00;0.00;;;;;;;;5089103;28;10744;-76
2024/02/23 09:29:39;;;;;;;;;0.25;0.00;;;;;;;;5091246;28;10647;-74
2024/02/23 09:32:06;;;;;;;;;1.00;1.00;;;;;;;;5090130;28;10602;-75
2024/02/23 09:34:34;;;;;;;;;0.00;0.00;;;;;;;;5090517;28;10684;-73
2024/02/23 09:37:01;;;;;;;;;0.25;0.00;;;;;;;;5078916;28;10806;-77
2024/02/23 09:39:30;;;;;;;;;1.00;1.00;;;;;;;;5090138;28;10601;-76
2024/02/23 09:41:58;;;;;;;;;1.00;1.00;;;;;;;;5090227;28;10591;-74
2024/02/23 09:44:25;;;;;;;;;0.00;0.00;;;;;;;;5089983;28;10653;-78
2024/02/23 09:46:52;;;;;;;;;0.00;0.00;;;;;;;;5090122;28;10508;-78
2024/02/23 09:49:20;;;;;;;;;0.00;0.00;;;;;;;;5089856;28;10542;-77
2024/02/23 09:51:47;;;;;;;;;0.00;0.00;;;;;;;;5090822;28;10606;-73
2024/02/23 09:54:14;;;;;;;;;0.00;0.00;;;;;;;;5090839;28;10600;-78
2024/02/23 09:56:43;;;;;;;;;0.00;0.00;;;;;;;;5092165;28;11298;-80
2024/02/23 09:59:13;;;;;;;;;1.00;0.00;;;;;;;;5091189;28;10411;-76
2024/02/23 10:01:40;;;;;;;;;0.00;0.00;;;;;;;;5090886;28;10237;-76
2024/02/23 10:04:08;;;;;;;;;0.00;0.00;;;;;;;;5090301;28;10345;-79
2024/02/23 10:06:38;;;;;;;;;0.00;0.00;;;;;;;;5088895;28;10431;-72
2024/02/23 10:09:05;;;;;;;;;0.00;0.00;;;;;;;;5090031;28;10264;-74
2024/02/23 10:11:32;;;;;;;;;2.00;0.75;;;;;;;;5090092;28;10301;-75
2024/02/23 10:14:04;;;;;;;;;0.00;0.00;;;;;;;;5089768;28;10210;-74
2024/02/23 10:16:31;;;;;;;;;0.00;0.00;;;;;;;;5088584;28;10375;-75
2024/02/23 10:19:02;;;;;;;;;0.00;0.00;;;;;;;;5089818;28;10255;-76
2024/02/23 10:21:29;;;;;;;;;0.00;0.00;;;;;;;;5089848;28;11039;-74
2024/02/23 10:23:57;;;;;;;;;0.00;0.00;;;;;;;;5089986;28;11112;-76
2024/02/23 10:26:26;;;;;;;;;2.00;0.50;;;;;;;;5089441;28;10154;-77
2024/02/23 10:28:55;;;;;;;;;0.00;0.00;;;;;;;;5089430;28;11217;-74
2024/02/23 10:31:24;;;;;;;;;0.50;0.50;;;;;;;;5089061;28;10169;-74
2024/02/23 10:33:54;;;;;;;;;0.00;0.00;;;;;;;;5089186;28;10292;-74
2024/02/23 10:36:22;;;;;;;;;0.00;0.00;;;;;;;;5088817;28;10341;-73
2024/02/23 10:38:51;;;;;;;;;0.25;0.00;;;;;;;;5089054;28;10983;-73
2024/02/23 10:41:19;;;;;;;;;0.75;0.75;;;;;;;;5089117;28;10311;-76
2024/02/23 10:43:48;;;;;;;;;0.00;0.00;;;;;;;;5089465;28;10203;-77
2024/02/23 10:46:20;;;;;;;;;1.25;0.75;;;;;;;;5088979;28;10181;-74
2024/02/23 10:48:50;;;;;;;;;0.25;0.25;;;;;;;;5089298;28;10339;-74
2024/02/23 10:51:17;;;;;;;;;2.00;0.25;;;;;;;;5088755;28;10346;-76
2024/02/23 10:53:46;;;;;;;;;1.00;1.00;;;;;;;;5089655;28;10172;-74
2024/02/23 10:56:16;;;;;;;;;0.75;0.75;;;;;;;;5090474;28;10150;-80
2024/02/23 10:58:45;;;;;;;;;0.00;0.00;;;;;;;;5090966;28;10162;-78
2024/02/23 11:01:14;;;;;;;;;1.00;1.00;;;;;;;;5080479;28;10108;-76
2024/02/23 11:03:47;;;;;;;;;0.00;0.00;;;;;;;;5090389;28;10254;-78
2024/02/23 11:06:20;;;;;;;;;0.75;0.75;;;;;;;;5080708;28;10153;-74
2024/02/23 11:08:48;;;;;;;;;0.00;0.00;;;;;;;;5092021;28;10199;-78
2024/02/23 11:11:17;;;;;;;;;0.00;0.00;;;;;;;;5091886;28;10234;-77
2024/02/23 11:13:46;;;;;;;;;0.00;0.00;;;;;;;;5091917;28;10178;-77
2024/02/23 11:16:24;;;;;;;;;1.50;0.00;;;;;;;;5090880;28;9983;-76
2024/02/23 11:18:51;;;;;;;;;0.00;0.00;;;;;;;;5088980;28;9914;-75
2024/02/23 11:21:23;;;;;;;;;0.00;0.00;;;;;;;;5087044;28;9939;-75
2024/02/23 11:23:51;;;;;;;;;0.00;0.00;;;;;;;;5091513;28;10200;-76
2024/02/23 11:26:20;;;;;;;;;2.00;0.25;;;;;;;;5098162;28;9838;-74
2024/02/23 11:28:52;;;;;;;;;0.50;0.50;;;;;;;;5089241;28;10160;-77
2024/02/23 11:31:21;;;;;;;;;2.00;0.00;;;;;;;;5087961;28;10029;-74
2024/02/23 11:33:51;;;;;;;;;0.00;0.00;;;;;;;;5092349;28;10924;-74
2024/02/23 11:36:32;;;;;;;;;2.00;0.25;;;;;;;;5088399;28;10058;-73
2024/02/23 11:39:02;;;;;;;;;0.00;0.00;;;;;;;;5088564;28;10987;-74
2024/02/23 11:41:30;;;;;;;;;0.00;0.00;;;;;;;;5088663;28;9855;-76
2024/02/23 11:43:59;;;;;;;;;0.00;0.00;;;;;;;;5090002;28;9999;-77
2024/02/23 11:46:26;;;;;;;;;0.00;0.00;;;;;;;;5091800;28;10126;-78
2024/02/23 11:48:54;;;;;;;;;1.00;0.00;;;;;;;;5091958;28;10134;-75
2024/02/23 11:51:23;;;;;;;;;1.00;0.00;;;;;;;;5091673;28;10067;-76
2024/02/23 11:53:52;;;;;;;;;0.00;0.00;;;;;;;;5089131;28;9928;-79
2024/02/23 11:56:20;;;;;;;;;0.00;0.00;;;;;;;;5087389;28;9863;-76
2024/02/23 11:58:49;;;;;;;;;0.00;0.00;;;;;;;;5088358;28;9956;-77
2024/02/23 12:01:16;;;;;;;;;2.00;0.00;;;;;;;;5087925;28;9833;-74
2024/02/23 12:03:46;;;;;;;;;0.00;0.00;;;;;;;;5088012;28;9764;-74
2024/02/23 12:06:15;;;;;;;;;0.00;0.00;;;;;;;;5088298;28;9839;-76
2024/02/23 12:08:43;;;;;;;;;2.00;0.00;;;;;;;;5088322;28;10014;-74
2024/02/23 12:11:13;;;;;;;;;0.00;0.00;;;;;;;;5077250;28;9917;-74
2024/02/23 12:13:41;;;;;;;;;0.00;0.00;;;;;;;;5087708;28;10795;-82
2024/02/23 12:16:09;;;;;;;;;2.00;0.00;;;;;;;;5086561;28;9848;-76
2024/02/23 12:18:37;;;;;;;;;1.00;1.00;;;;;;;;5087867;28;9927;-75
2024/02/23 12:21:08;;;;;;;;;0.00;0.00;;;;;;;;5087998;28;9942;-76
2024/02/23 12:23:41;;;;;;;;;0.25;0.25;;;;;;;;5087333;28;10009;-74
2024/02/23 12:26:13;;;;;;;;;0.50;0.00;;;;;;;;5087861;28;9934;-75
2024/02/23 12:28:40;;;;;;;;;1.00;0.25;;;;;;;;5087659;28;9993;-75
2024/02/23 12:31:07;;;;;;;;;0.00;0.00;;;;;;;;5087004;28;9963;-74
2024/02/23 12:33:37;;;;;;;;;0.75;0.75;;;;;;;;5087493;28;9823;-78
2024/02/23 12:36:05;;;;;;;;;0.00;0.00;;;;;;;;5087560;28;9856;-76
2024/02/23 12:38:35;;;;;;;;;0.00;0.00;;;;;;;;5094300;28;9845;-78
2024/02/23 12:41:05;;;;;;;;;1.25;1.00;;;;;;;;5093429;28;9992;-73
2024/02/23 12:43:36;;;;;;;;;0.00;0.00;;;;;;;;5088257;28;10069;-80
2024/02/23 12:46:05;;;;;;;;;0.00;0.00;;;;;;;;5088441;28;10076;-78
2024/02/23 12:48:34;;;;;;;;;0.00;0.00;;;;;;;;5089049;28;9993;-80
2024/02/23 12:51:01;;;;;;;;;0.00;0.00;;;;;;;;5090446;28;9902;-79
2024/02/23 12:53:36;;;;;;;;;0.75;0.00;;;;;;;;5090603;28;10156;-79
2024/02/23 12:56:15;;;;;;;;;0.00;0.00;;;;;;;;5090047;28;9928;-81
2024/02/23 12:58:46;;;;;;;;;0.00;0.00;;;;;;;;5090870;28;9845;-77
2024/02/23 13:01:14;;;;;;;;;1.50;0.00;;;;;;;;5090256;28;9726;-80
2024/02/23 13:03:43;;;;;;;;;1.75;0.00;;;;;;;;5093761;28;9924;-73
2024/02/23 13:06:10;;;;;;;;;1.00;1.00;;;;;;;;5091680;28;9788;-76
2024/02/23 13:08:38;;;;;;;;;0.00;0.00;;;;;;;;5091312;28;9903;-74
2024/02/23 13:11:09;;;;;;;;;0.00;0.00;;;;;;;;5090963;28;9698;-74
2024/02/23 13:13:36;;;;;;;;;0.50;0.00;;;;;;;;5091024;28;9660;-75
2024/02/23 13:16:08;;;;;;;;;0.75;0.00;;;;;;;;5090532;28;9626;-77
2024/02/23 13:18:35;;;;;;;;;0.00;0.00;;;;;;;;5090827;28;9513;-77
2024/02/23 13:21:05;;;;;;;;;0.00;0.00;;;;;;;;5090895;28;9397;-73
2024/02/23 13:23:34;;;;;;;;;0.00;0.00;;;;;;;;5102910;28;9384;-74
2024/02/23 13:26:02;;;;;;;;;0.00;0.00;;;;;;;;5090835;28;9413;-75
2024/02/23 13:28:31;;;;;;;;;0.67;0.00;;;;;;;;5090782;28;9463;-76
2024/02/23 13:30:58;;;;;;;;;0.00;0.00;;;;;;;;5090495;28;9246;-73
2024/02/23 13:33:27;;;;;;;;;1.00;0.00;;;;;;;;5091731;28;9333;-77
2024/02/23 13:35:54;;;;;;;;;0.00;0.00;;;;;;;;5092829;28;9430;-74
2024/02/23 13:38:23;;;;;;;;;1.00;0.00;;;;;;;;5093232;28;9287;-73
2024/02/23 13:40:57;;;;;;;;;0.00;0.00;;;;;;;;5092745;28;9260;-73
2024/02/23 13:43:24;;;;;;;;;0.00;0.00;;;;;;;;5091451;28;9246;-74
2024/02/23 13:45:56;;;;;;;;;0.00;0.00;;;;;;;;5089874;28;9431;-76
2024/02/23 13:48:23;;;;;;;;;0.00;0.00;;;;;;;;5090861;28;9370;-76
2024/02/23 13:50:57;;;;;;;;;0.00;0.00;;;;;;;;5090263;28;9190;-72
2024/02/23 13:53:25;;;;;;;;;0.00;0.00;;;;;;;;5091110;28;9465;-74
2024/02/23 13:55:52;;;;;;;;;0.00;0.00;;;;;;;;5090196;28;9418;-73
2024/02/23 13:58:19;;;;;;;;;2.75;0.00;;;;;;;;5091085;28;9504;-74
2024/02/23 14:00:46;;;;;;;;;2.00;0.00;;;;;;;;5085326;28;9592;-72
2024/02/23 14:03:18;;;;;;;;;0.00;0.00;;;;;;;;5085721;28;9448;-77
2024/02/23 14:05:46;;;;;;;;;0.00;0.00;;;;;;;;5089921;28;9313;-75
2024/02/23 14:08:17;;;;;;;;;0.00;0.00;;;;;;;;5091481;28;9517;-77
2024/02/23 14:10:45;;;;;;;;;0.00;0.00;;;;;;;;5092272;28;9448;-75
2024/02/23 14:13:12;;;;;;;;;0.00;0.00;;;;;;;;5096213;28;9628;-77
2024/02/23 14:15:41;;;;;;;;;0.50;0.00;;;;;;;;5086381;28;9610;-74
2024/02/23 14:18:08;;;;;;;;;0.75;0.75;;;;;;;;5089787;28;9591;-78
2024/02/23 14:20:36;;;;;;;;;0.00;0.00;;;;;;;;5088682;28;9541;-72
2024/02/23 14:23:03;;;;;;;;;0.00;0.00;;;;;;;;5089542;28;9513;-76
2024/02/23 14:25:32;;;;;;;;;0.00;0.00;;;;;;;;5088702;28;9464;-72
2024/02/23 14:28:02;;;;;;;;;0.00;0.00;;;;;;;;5090351;28;9579;-79
2024/02/23 14:30:35;;;;;;;;;0.00;0.00;;;;;;;;5078137;28;9250;-76
2024/02/23 14:36:33;;;;;;;;;0.00;0.00;;;;;;;;5067506;28;9478;-76
2024/02/23 14:39:00;;;;;;;;;0.00;0.00;;;;;;;;5092417;28;9265;-77
2024/02/23 14:41:32;;;;;;;;;0.00;0.00;;;;;;;;5091867;28;9379;-76
2024/02/23 14:44:01;;;;;;;;;0.00;0.00;;;;;;;;5104398;28;9340;-79
2024/02/23 14:46:28;;;;;;;;;0.00;0.00;;;;;;;;5091908;28;9178;-74
2024/02/23 14:48:56;;;;;;;;;0.00;0.00;;;;;;;;5093159;28;9073;-75
2024/02/23 14:51:23;;;;;;;;;0.00;0.00;;;;;;;;5092878;28;9131;-77
2024/02/23 14:53:50;;;;;;;;;0.00;0.00;;;;;;;;5090340;28;9082;-73
2024/02/23 14:56:17;;;;;;;;;0.00;0.00;;;;;;;;5089143;28;9163;-74